Terminal Aerodrome Forecast
Issued by NWS

Home | Current Version | Previous Version | Graphics & Text | Print | Product List | Glossary On
Versions: 1 2 3 4 5 6 7 8 9 10 11 12 13 14 15 16 17 18 19
000
FTUS42 KMHX 190100 AAB
TAFPGV
TAF AMD
KPGV 190128Z 1901/1924 21006KT P6SM VCTS BKN006 BKN015 BKN030CB
     FM190200 21004KT 4SM TSRA BKN020CB
     FM190245 21006KT P6SM SCT030 BKN050
     FM190800 24003KT 4SM BR SCT040
     FM191300 26008KT P6SM SCT040
     FM191900 25009KT P6SM BKN040
      AMD LTD TO CLD VIS AND WIND=

USA.gov is the U.S. government's official web portal to all federal, state and local government web resources and services.